createdAt,value
2018-10-04T00:00:41.889Z,7.10
2018-10-04T00:03:10.155Z,7.53
2018-10-04T00:05:38.419Z,8.83
2018-10-04T00:08:06.696Z,7.33
2018-10-04T00:10:34.960Z,10.90
2018-10-04T00:13:03.229Z,8.83
2018-10-04T00:15:31.488Z,8.27
2018-10-04T00:17:59.770Z,9.40
2018-10-04T00:20:28.241Z,8.50
2018-10-04T00:22:56.544Z,8.43
2018-10-04T00:25:24.839Z,8.17
2018-10-04T00:27:53.105Z,7.87
2018-10-04T00:30:21.376Z,9.83
2018-10-04T00:32:49.629Z,7.57
2018-10-04T00:35:17.896Z,8.03
2018-10-04T00:37:46.162Z,8.23
2018-10-04T00:40:14.433Z,8.23
2018-10-04T00:42:42.710Z,7.93
2018-10-04T00:45:10.981Z,8.07
2018-10-04T00:47:39.242Z,6.90
2018-10-04T00:50:07.513Z,7.53
2018-10-04T00:52:35.785Z,9.63
2018-10-04T00:55:04.125Z,10.27
2018-10-04T00:57:32.372Z,8.83
2018-10-04T01:00:00.782Z,9.63
2018-10-04T01:02:29.024Z,11.43
2018-10-04T01:04:57.309Z,9.00
2018-10-04T01:07:25.623Z,9.30
2018-10-04T01:09:53.933Z,9.03
2018-10-04T01:12:22.193Z,8.73
2018-10-04T01:14:50.456Z,9.07
2018-10-04T01:17:18.724Z,8.80
2018-10-04T01:19:46.996Z,8.83
2018-10-04T01:22:15.350Z,7.87
2018-10-04T01:24:43.672Z,8.97
2018-10-04T01:27:11.954Z,9.83
2018-10-04T01:29:40.209Z,9.07
2018-10-04T01:32:08.481Z,10.20
2018-10-04T01:34:36.747Z,9.57
2018-10-04T01:37:04.997Z,8.17
2018-10-04T01:39:33.252Z,8.80
2018-10-04T01:42:01.513Z,8.53
2018-10-04T01:44:29.795Z,10.17
2018-10-04T01:46:58.056Z,8.30
2018-10-04T01:49:26.312Z,8.60
2018-10-04T01:51:54.584Z,9.10
2018-10-04T01:54:22.847Z,8.10
2018-10-04T01:56:51.116Z,7.40
2018-10-04T01:59:19.378Z,6.83
2018-10-04T02:01:47.637Z,7.90
2018-10-04T02:04:15.941Z,8.27
2018-10-04T02:06:44.196Z,7.20
2018-10-04T02:09:12.507Z,6.90
2018-10-04T02:11:40.770Z,6.77
2018-10-04T02:14:09.036Z,7.93
2018-10-04T02:16:37.297Z,6.77
2018-10-04T02:19:05.640Z,6.10
2018-10-04T02:21:33.904Z,6.43
2018-10-04T02:24:02.168Z,6.73
2018-10-04T02:26:30.616Z,7.63
2018-10-04T02:28:58.867Z,7.07
2018-10-04T02:31:27.125Z,7.03
2018-10-04T02:33:55.393Z,7.43
2018-10-04T02:36:23.644Z,7.87
2018-10-04T02:38:51.900Z,7.53
2018-10-04T02:41:20.154Z,7.07
2018-10-04T02:43:48.421Z,6.47
2018-10-04T02:46:16.693Z,8.37
2018-10-04T02:48:44.952Z,6.03
2018-10-04T02:51:13.208Z,7.73
2018-10-04T02:53:41.468Z,6.77
2018-10-04T02:56:14.998Z,6.43
2018-10-04T02:58:43.252Z,6.37
2018-10-04T03:01:11.542Z,6.20
2018-10-04T03:03:39.821Z,6.00
2018-10-04T03:06:08.188Z,7.57
2018-10-04T03:08:36.458Z,6.13
2018-10-04T03:11:04.708Z,6.07
2018-10-04T03:13:32.966Z,6.47
2018-10-04T03:16:01.216Z,7.07
2018-10-04T03:18:29.476Z,8.13
2018-10-04T03:20:57.733Z,7.07
2018-10-04T03:23:25.993Z,5.63
2018-10-04T03:25:54.257Z,6.13
2018-10-04T03:28:22.525Z,6.10
2018-10-04T03:30:50.821Z,6.80
2018-10-04T03:33:19.078Z,5.63
2018-10-04T03:35:47.398Z,5.43
2018-10-04T03:38:15.669Z,5.40
2018-10-04T03:40:43.926Z,5.30
2018-10-04T03:43:12.173Z,4.70
2018-10-04T03:45:40.428Z,5.60
2018-10-04T03:48:08.690Z,5.90
2018-10-04T03:50:36.961Z,11.87
2018-10-04T03:53:05.234Z,5.33
2018-10-04T03:55:33.544Z,7.37
2018-10-04T03:58:01.801Z,5.83
2018-10-04T04:00:30.066Z,5.63
2018-10-04T04:02:58.337Z,6.90
2018-10-04T04:05:26.641Z,6.33
2018-10-04T04:07:54.917Z,5.57
2018-10-04T04:10:23.164Z,5.80
2018-10-04T04:12:51.437Z,6.53
2018-10-04T04:15:19.697Z,5.17
2018-10-04T04:17:47.969Z,6.03
2018-10-04T04:20:16.225Z,6.37
2018-10-04T04:22:44.509Z,6.47
2018-10-04T04:25:12.841Z,4.10
2018-10-04T04:27:41.149Z,4.57
2018-10-04T04:30:09.548Z,6.60
2018-10-04T04:32:37.804Z,5.97
2018-10-04T04:35:06.125Z,6.37
2018-10-04T04:37:34.488Z,6.03
2018-10-04T04:40:02.757Z,7.90
2018-10-04T04:42:31.038Z,6.20
2018-10-04T04:44:59.305Z,6.10
2018-10-04T04:47:27.561Z,7.60
2018-10-04T04:49:55.830Z,6.47
2018-10-04T04:52:24.078Z,6.40
2018-10-04T04:55:38.880Z,5.70
2018-10-04T04:58:08.390Z,6.20
2018-10-04T05:00:37.723Z,6.40
2018-10-04T05:03:06.093Z,7.73
2018-10-04T05:05:34.369Z,6.07
2018-10-04T05:08:04.713Z,5.77
2018-10-04T05:10:33.576Z,6.20
2018-10-04T05:13:02.780Z,6.10
2018-10-04T05:15:31.037Z,6.77
2018-10-04T05:17:59.291Z,6.43
2018-10-04T05:20:27.552Z,5.70
2018-10-04T05:22:55.897Z,6.60
2018-10-04T05:25:24.233Z,6.13
2018-10-04T05:27:52.581Z,6.30
2018-10-04T05:30:20.953Z,5.13
2018-10-04T05:32:49.508Z,5.50
2018-10-04T05:35:17.783Z,8.00
2018-10-04T05:37:46.186Z,6.27
2018-10-04T05:40:14.530Z,5.03
2018-10-04T05:42:42.793Z,5.50
2018-10-04T05:45:11.164Z,5.37
2018-10-04T05:47:39.312Z,5.60
2018-10-04T05:50:07.629Z,6.23
2018-10-04T05:52:35.958Z,9.27
2018-10-04T05:55:04.293Z,8.87
2018-10-04T05:57:32.578Z,6.13
2018-10-04T06:00:11.989Z,8.57
2018-10-04T06:02:40.241Z,8.77
2018-10-04T06:05:08.763Z,6.80
2018-10-04T06:07:37.269Z,5.97
2018-10-04T06:10:06.154Z,6.10
2018-10-04T06:12:34.402Z,8.23
2018-10-04T06:15:02.731Z,9.20
2018-10-04T06:17:30.984Z,7.83
2018-10-04T06:19:59.237Z,8.50
2018-10-04T06:22:27.501Z,7.27
2018-10-04T06:24:55.748Z,7.30
2018-10-04T06:27:24.017Z,10.33
2018-10-04T06:29:52.477Z,9.53
2018-10-04T06:32:20.753Z,10.83
2018-10-04T06:34:49.019Z,11.57
2018-10-04T06:37:17.279Z,9.00
2018-10-04T06:39:45.536Z,10.37
2018-10-04T06:42:13.857Z,10.87
2018-10-04T06:44:42.124Z,10.77
2018-10-04T06:47:10.400Z,10.93
2018-10-04T06:49:38.665Z,11.60
2018-10-04T06:52:07.053Z,10.53
2018-10-04T06:54:35.318Z,11.77
2018-10-04T06:57:03.865Z,9.40
2018-10-04T06:59:32.132Z,14.60
2018-10-04T07:02:00.433Z,12.57
2018-10-04T07:04:28.702Z,12.07
2018-10-04T07:06:56.955Z,12.37
2018-10-04T07:09:25.215Z,14.07
2018-10-04T07:11:53.478Z,13.00
2018-10-04T07:14:21.757Z,12.37
2018-10-04T07:16:50.017Z,13.90
2018-10-04T07:19:18.313Z,16.30
2018-10-04T07:21:46.585Z,14.27
2018-10-04T07:24:14.859Z,17.47
2018-10-04T07:26:43.117Z,20.90
2018-10-04T07:29:11.401Z,15.90
2018-10-04T07:31:39.705Z,16.77
2018-10-04T07:34:07.992Z,15.83
2018-10-04T07:36:36.269Z,15.40
2018-10-04T07:39:06.501Z,17.63
2018-10-04T07:41:34.758Z,19.13
2018-10-04T07:44:03.070Z,19.50
2018-10-04T07:46:31.333Z,18.23
2018-10-04T07:48:59.607Z,18.00
2018-10-04T07:51:27.865Z,19.47
2018-10-04T07:53:56.129Z,21.17
2018-10-04T07:56:24.400Z,21.97
2018-10-04T07:58:52.671Z,20.70
2018-10-04T08:01:20.931Z,20.23
2018-10-04T08:03:49.191Z,20.70
2018-10-04T08:06:17.588Z,18.70
2018-10-04T08:08:45.724Z,20.40
2018-10-04T08:11:13.998Z,18.87
2018-10-04T08:13:42.273Z,18.00
2018-10-04T08:16:10.542Z,20.93
2018-10-04T08:18:38.821Z,17.60
2018-10-04T08:21:07.259Z,18.03
2018-10-04T08:23:35.469Z,19.27
2018-10-04T08:26:03.744Z,17.63
2018-10-04T08:28:32.021Z,17.27
2018-10-04T08:31:00.412Z,18.70
2018-10-04T08:33:28.678Z,17.73
2018-10-04T08:35:56.959Z,12.73
2018-10-04T08:38:25.244Z,16.60
2018-10-04T08:40:53.504Z,18.13
2018-10-04T08:43:21.799Z,15.17
2018-10-04T08:45:50.077Z,16.67
2018-10-04T08:48:18.406Z,15.80
2018-10-04T08:50:51.236Z,13.30
2018-10-04T08:53:19.569Z,12.27
2018-10-04T08:55:47.856Z,15.37
2018-10-04T08:58:16.170Z,13.60
2018-10-04T09:00:44.440Z,13.63
2018-10-04T09:03:12.704Z,15.13
2018-10-04T09:05:40.973Z,14.63
2018-10-04T09:08:09.303Z,14.87
2018-10-04T09:10:37.596Z,15.27
2018-10-04T09:13:05.884Z,15.70
2018-10-04T09:15:34.238Z,16.00
2018-10-04T09:18:02.509Z,16.27
2018-10-04T09:20:30.780Z,15.30
2018-10-04T09:22:59.211Z,13.57
2018-10-04T09:25:27.596Z,13.67
2018-10-04T09:27:55.901Z,17.93
2018-10-04T09:30:29.512Z,18.03
2018-10-04T09:32:57.817Z,18.10
2018-10-04T09:35:26.117Z,15.83
2018-10-04T09:37:54.426Z,16.27
2018-10-04T09:40:22.705Z,16.17
2018-10-04T09:42:50.980Z,16.67
2018-10-04T09:45:19.236Z,19.07
2018-10-04T09:47:47.536Z,17.37
2018-10-04T09:50:15.799Z,16.93
2018-10-04T09:52:44.060Z,17.80
2018-10-04T09:55:13.577Z,17.33
2018-10-04T09:57:45.155Z,19.50
2018-10-04T10:00:18.760Z,19.93
2018-10-04T10:02:53.032Z,16.87
2018-10-04T10:05:21.306Z,16.60
2018-10-04T10:07:50.602Z,15.97
2018-10-04T10:10:18.886Z,16.13
2018-10-04T10:12:47.341Z,16.80
2018-10-04T10:15:15.933Z,16.80
2018-10-04T10:17:44.184Z,14.60
2018-10-04T10:20:12.898Z,16.33
2018-10-04T10:22:41.277Z,16.77
2018-10-04T10:25:09.561Z,16.87
2018-10-04T10:27:37.816Z,17.23
2018-10-04T10:30:06.249Z,15.63
2018-10-04T10:32:34.684Z,15.00
2018-10-04T10:35:02.989Z,16.30
2018-10-04T10:37:31.258Z,16.50
2018-10-04T10:40:00.078Z,18.80
2018-10-04T10:42:28.308Z,16.67
2018-10-04T10:44:56.573Z,16.57
2018-10-04T10:47:24.837Z,15.50
2018-10-04T10:49:53.110Z,15.67
2018-10-04T10:52:21.394Z,15.53
2018-10-04T10:54:49.771Z,14.23
2018-10-04T10:57:18.024Z,14.50
2018-10-04T10:59:46.291Z,13.73
2018-10-04T11:02:14.576Z,14.00
2018-10-04T11:04:42.853Z,13.27
2018-10-04T11:07:11.137Z,14.17
2018-10-04T11:09:39.406Z,14.37
2018-10-04T11:12:07.706Z,14.33
2018-10-04T11:14:35.977Z,14.27
2018-10-04T11:17:04.372Z,12.67
2018-10-04T11:19:32.636Z,13.77
2018-10-04T11:22:00.930Z,14.53
2018-10-04T11:24:29.299Z,15.27
2018-10-04T11:26:57.467Z,15.57
2018-10-04T11:29:25.806Z,20.07
2018-10-04T11:31:54.065Z,15.30
2018-10-04T11:34:23.296Z,15.23
2018-10-04T11:36:51.589Z,12.13
2018-10-04T11:39:19.868Z,11.43
2018-10-04T11:41:48.163Z,12.33
2018-10-04T11:44:24.302Z,12.97
2018-10-04T11:46:58.309Z,11.93
2018-10-04T11:49:26.580Z,12.90
2018-10-04T11:51:54.856Z,13.07
2018-10-04T11:54:23.217Z,12.73
2018-10-04T11:56:51.582Z,13.70
2018-10-04T11:59:19.803Z,12.13
2018-10-04T12:01:48.094Z,11.30
2018-10-04T12:04:16.372Z,12.13
2018-10-04T12:06:44.677Z,11.40
2018-10-04T12:09:13.010Z,11.23
2018-10-04T12:11:41.293Z,11.43
2018-10-04T12:14:09.593Z,11.20
2018-10-04T12:16:37.882Z,11.43
2018-10-04T12:19:06.188Z,11.20
2018-10-04T12:21:34.597Z,10.77
2018-10-04T12:24:02.849Z,11.53
2018-10-04T12:26:31.108Z,10.43
2018-10-04T12:28:59.373Z,11.87
2018-10-04T12:31:27.682Z,11.87
2018-10-04T12:33:55.965Z,10.70
2018-10-04T12:36:24.343Z,10.47
2018-10-04T12:38:52.698Z,9.17
2018-10-04T12:41:20.940Z,9.87
2018-10-04T12:43:49.219Z,10.53
2018-10-04T12:46:17.485Z,10.30
2018-10-04T12:48:45.769Z,8.87
2018-10-04T12:51:14.033Z,9.37
2018-10-04T12:53:42.313Z,11.77
2018-10-04T12:56:10.572Z,8.93
2018-10-04T12:58:38.837Z,11.03
2018-10-04T13:01:07.293Z,9.67
2018-10-04T13:03:35.540Z,9.77
2018-10-04T13:06:03.817Z,9.73
2018-10-04T13:08:32.122Z,9.50
2018-10-04T13:11:00.356Z,9.50
2018-10-04T13:13:28.675Z,9.50
2018-10-04T13:15:56.989Z,9.77
2018-10-04T13:18:25.236Z,9.97
2018-10-04T13:20:53.628Z,9.47
2018-10-04T13:23:21.777Z,9.80
2018-10-04T13:25:50.058Z,10.47
2018-10-04T13:28:18.450Z,12.23
2018-10-04T13:30:46.717Z,10.00
2018-10-04T13:33:14.991Z,9.97
2018-10-04T13:35:43.281Z,9.47
2018-10-04T13:38:11.605Z,8.93
2018-10-04T13:40:39.935Z,11.57
2018-10-04T13:43:08.142Z,10.50
2018-10-04T13:45:36.406Z,10.30
2018-10-04T13:48:04.699Z,11.00
2018-10-04T13:50:32.954Z,8.97
2018-10-04T13:53:01.206Z,9.67
2018-10-04T13:55:29.509Z,9.77
2018-10-04T13:57:57.755Z,9.00
2018-10-04T14:00:26.038Z,9.97
2018-10-04T14:02:54.293Z,10.50
2018-10-04T14:05:22.582Z,10.20
2018-10-04T14:07:50.940Z,9.93
2018-10-04T14:10:19.212Z,12.13
2018-10-04T14:12:47.472Z,9.93
2018-10-04T14:15:15.773Z,10.50
2018-10-04T14:17:44.040Z,10.53
2018-10-04T14:20:12.317Z,9.60
2018-10-04T14:22:40.580Z,11.20
2018-10-04T14:25:08.933Z,10.30
2018-10-04T14:27:37.200Z,10.80
2018-10-04T14:30:05.513Z,9.47
2018-10-04T14:32:33.829Z,10.50
2018-10-04T14:35:02.097Z,9.87
2018-10-04T14:37:30.338Z,9.70
2018-10-04T14:39:58.621Z,10.27
2018-10-04T14:42:26.918Z,11.17
2018-10-04T14:44:55.185Z,11.47
2018-10-04T14:47:23.465Z,11.10
2018-10-04T14:49:51.737Z,12.40
2018-10-04T14:52:20.548Z,12.17
2018-10-04T14:54:48.796Z,10.37
2018-10-04T14:57:17.060Z,10.23
2018-10-04T14:59:45.332Z,10.90
2018-10-04T15:02:13.607Z,9.80
2018-10-04T15:04:41.886Z,10.23
2018-10-04T15:07:10.172Z,11.50
2018-10-04T15:09:38.480Z,9.00
2018-10-04T15:12:06.812Z,10.73
2018-10-04T15:14:35.110Z,8.83
2018-10-04T15:17:03.384Z,8.83
2018-10-04T15:19:31.652Z,9.57
2018-10-04T15:21:59.928Z,12.07
2018-10-04T15:24:28.267Z,9.77
2018-10-04T15:26:56.562Z,8.20
2018-10-04T15:29:24.825Z,11.93
2018-10-04T15:31:53.085Z,11.17
2018-10-04T15:34:21.340Z,10.47
2018-10-04T15:36:49.610Z,10.00
2018-10-04T15:39:17.865Z,10.17
2018-10-04T15:41:46.131Z,7.70
2018-10-04T15:44:14.421Z,9.50
2018-10-04T15:46:42.705Z,8.00
2018-10-04T15:49:10.973Z,9.10
2018-10-04T15:51:39.225Z,8.70
2018-10-04T15:54:07.484Z,8.80
2018-10-04T15:56:35.731Z,7.23
2018-10-04T15:59:03.998Z,10.03
2018-10-04T16:01:32.251Z,6.80
2018-10-04T16:04:00.539Z,12.63
2018-10-04T16:06:28.812Z,11.90
2018-10-04T16:08:57.072Z,8.23
2018-10-04T16:11:25.329Z,9.47
2018-10-04T16:13:53.592Z,9.30
2018-10-04T16:16:21.856Z,10.77
2018-10-04T16:18:50.140Z,8.47
2018-10-04T16:21:18.404Z,10.13
2018-10-04T16:23:46.689Z,17.60
2018-10-04T16:26:14.967Z,8.80
2018-10-04T16:28:43.228Z,11.63
2018-10-04T16:31:11.489Z,8.47
2018-10-04T16:33:39.801Z,11.13
2018-10-04T16:36:08.052Z,9.90
2018-10-04T16:38:36.412Z,7.43
2018-10-04T16:41:04.716Z,7.47
2018-10-04T16:43:32.993Z,8.90
2018-10-04T16:46:01.265Z,9.63
2018-10-04T16:48:29.548Z,7.77
2018-10-04T16:50:57.825Z,10.23
2018-10-04T16:53:26.106Z,9.83
2018-10-04T16:55:54.448Z,9.87
2018-10-04T16:58:22.716Z,9.27
2018-10-04T17:00:51.103Z,8.17
2018-10-04T17:03:19.460Z,7.77
2018-10-04T17:05:47.704Z,14.73
2018-10-04T17:08:15.970Z,12.07
2018-10-04T17:10:44.228Z,14.33
2018-10-04T17:13:12.478Z,21.37
2018-10-04T17:15:40.755Z,24.30
2018-10-04T17:18:09.029Z,21.30
2018-10-04T17:20:37.293Z,17.13
2018-10-04T17:23:05.572Z,20.53
2018-10-04T17:25:33.842Z,18.13
2018-10-04T17:28:02.120Z,12.90
2018-10-04T17:30:30.381Z,18.60
2018-10-04T17:32:58.659Z,24.03
2018-10-04T17:35:27.104Z,20.87
2018-10-04T17:37:55.384Z,24.30
2018-10-04T17:40:23.633Z,24.13
2018-10-04T17:42:51.912Z,18.97
2018-10-04T17:45:20.208Z,13.83
2018-10-04T17:47:48.645Z,17.57
2018-10-04T17:50:16.759Z,15.50
2018-10-04T17:52:45.048Z,18.43
2018-10-04T17:55:13.296Z,20.97
2018-10-04T17:57:42.262Z,22.60
2018-10-04T18:00:14.711Z,14.27
2018-10-04T18:02:42.974Z,11.33
2018-10-04T18:05:11.445Z,12.93
2018-10-04T18:07:40.320Z,13.70
2018-10-04T18:10:08.597Z,15.67
2018-10-04T18:12:36.865Z,13.50
2018-10-04T18:15:05.413Z,13.67
2018-10-04T18:17:33.702Z,16.77
2018-10-04T18:20:01.986Z,16.27
2018-10-04T18:22:30.262Z,14.63
2018-10-04T18:24:58.549Z,14.57
2018-10-04T18:27:26.833Z,16.47
2018-10-04T18:29:55.089Z,12.47
2018-10-04T18:32:23.399Z,15.27
2018-10-04T18:34:51.640Z,14.57
2018-10-04T18:37:25.882Z,14.87
2018-10-04T18:39:54.141Z,11.83
2018-10-04T18:42:22.427Z,14.03
2018-10-04T18:44:50.692Z,18.83
2018-10-04T18:47:18.982Z,17.17
2018-10-04T18:49:47.249Z,15.60
2018-10-04T18:52:15.631Z,17.10
2018-10-04T18:54:43.968Z,48.53
2018-10-04T18:57:12.344Z,23.27
2018-10-04T18:59:40.724Z,23.67
2018-10-04T19:02:08.991Z,27.03
2018-10-04T19:04:37.289Z,31.30
2018-10-04T19:07:05.602Z,39.27
2018-10-04T19:09:33.855Z,33.80
2018-10-04T19:12:02.156Z,22.53
2018-10-04T19:14:30.422Z,20.77
2018-10-04T19:16:58.675Z,17.60
2018-10-04T19:19:27.096Z,19.67
2018-10-04T19:21:55.477Z,14.50
2018-10-04T19:24:23.739Z,12.87
2018-10-04T19:26:52.017Z,15.57
2018-10-04T19:29:20.306Z,14.70
2018-10-04T19:31:48.572Z,14.33
2018-10-04T19:34:16.845Z,14.37
2018-10-04T19:36:45.101Z,15.17
2018-10-04T19:39:13.385Z,14.10
2018-10-04T19:41:41.644Z,15.40
2018-10-04T19:44:10.022Z,14.50
2018-10-04T19:46:38.298Z,13.57
2018-10-04T19:49:06.860Z,16.00
2018-10-04T19:51:35.138Z,17.73
2018-10-04T19:54:03.416Z,13.97
2018-10-04T19:56:31.697Z,16.40
2018-10-04T19:58:59.972Z,15.50
2018-10-04T20:01:28.238Z,14.97
2018-10-04T20:03:56.852Z,16.63
2018-10-04T20:06:24.798Z,15.13
2018-10-04T20:08:53.056Z,15.80
2018-10-04T20:11:21.340Z,14.87
2018-10-04T20:13:49.644Z,13.50
2018-10-04T20:16:17.930Z,15.03
2018-10-04T20:18:46.205Z,16.37
2018-10-04T20:21:14.471Z,16.70
2018-10-04T20:23:42.731Z,16.63
2018-10-04T20:26:11.006Z,16.10
2018-10-04T20:28:39.273Z,20.73
2018-10-04T20:31:07.561Z,19.07
2018-10-04T20:33:35.832Z,17.80
2018-10-04T20:36:04.097Z,15.97
2018-10-04T20:38:32.376Z,18.17
2018-10-04T20:41:00.665Z,19.33
2018-10-04T20:43:28.945Z,20.93
2018-10-04T20:45:57.215Z,18.13
2018-10-04T20:48:25.576Z,14.47
2018-10-04T20:50:53.866Z,18.53
2018-10-04T20:53:22.138Z,17.30
2018-10-04T20:55:50.506Z,15.70
2018-10-04T20:58:18.680Z,21.27
2018-10-04T21:00:46.956Z,17.83
2018-10-04T21:03:15.208Z,17.37
2018-10-04T21:05:43.511Z,18.23
2018-10-04T21:08:11.768Z,14.13
2018-10-04T21:10:40.061Z,17.73
2018-10-04T21:13:08.364Z,17.10
2018-10-04T21:15:36.629Z,20.90
2018-10-04T21:18:04.913Z,18.63
2018-10-04T21:20:33.164Z,16.97
2018-10-04T21:23:01.695Z,17.70
2018-10-04T21:25:29.815Z,17.80
2018-10-04T21:27:58.087Z,15.30
2018-10-04T21:30:26.363Z,15.10
2018-10-04T21:32:54.624Z,14.47
2018-10-04T21:35:22.936Z,15.87
2018-10-04T21:37:51.347Z,14.97
2018-10-04T21:40:19.619Z,15.43
2018-10-04T21:42:47.864Z,16.60
2018-10-04T21:45:16.173Z,14.43
2018-10-04T21:47:44.383Z,17.00
2018-10-04T21:50:12.644Z,16.80
2018-10-04T21:52:40.903Z,16.47
2018-10-04T21:55:09.169Z,14.10
2018-10-04T21:57:37.489Z,14.67
2018-10-04T22:00:06.609Z,15.50
2018-10-04T22:02:34.880Z,15.43
2018-10-04T22:05:03.197Z,13.40
2018-10-04T22:07:31.449Z,13.07
2018-10-04T22:09:59.719Z,14.30
2018-10-04T22:12:27.978Z,14.73
2018-10-04T22:14:56.264Z,18.33
2018-10-04T22:17:24.541Z,15.43
2018-10-04T22:19:52.821Z,15.57
2018-10-04T22:22:21.065Z,14.97
2018-10-04T22:24:49.325Z,11.83
2018-10-04T22:27:17.724Z,15.07
2018-10-04T22:29:45.976Z,14.10
2018-10-04T22:32:14.250Z,13.83
2018-10-04T22:34:42.512Z,17.40
2018-10-04T22:37:10.768Z,13.23
2018-10-04T22:39:39.052Z,12.13
2018-10-04T22:42:07.320Z,13.23
2018-10-04T22:44:35.584Z,14.63
2018-10-04T22:47:03.847Z,14.63
2018-10-04T22:49:32.141Z,14.07
2018-10-04T22:52:00.401Z,13.77
2018-10-04T22:54:28.652Z,12.87
2018-10-04T22:56:56.967Z,14.73
2018-10-04T22:59:25.182Z,14.97
2018-10-04T23:01:53.434Z,13.30
2018-10-04T23:04:21.692Z,13.13
2018-10-04T23:06:49.953Z,14.37
2018-10-04T23:09:18.217Z,12.87
2018-10-04T23:11:46.484Z,12.97
2018-10-04T23:14:14.753Z,14.00
2018-10-04T23:16:43.001Z,14.43
2018-10-04T23:19:11.272Z,15.80
2018-10-04T23:21:39.538Z,12.60
2018-10-04T23:24:07.827Z,13.43
2018-10-04T23:26:36.094Z,11.83
2018-10-04T23:29:04.381Z,13.53
2018-10-04T23:31:32.682Z,13.57
2018-10-04T23:34:00.997Z,11.83
2018-10-04T23:36:29.317Z,13.13
2018-10-04T23:38:57.587Z,11.63
2018-10-04T23:41:25.853Z,14.77
2018-10-04T23:43:54.136Z,12.33
2018-10-04T23:46:22.421Z,12.90
2018-10-04T23:48:50.693Z,10.73
2018-10-04T23:51:18.963Z,11.23
2018-10-04T23:53:47.240Z,11.23
2018-10-04T23:56:15.513Z,12.30
2018-10-04T23:58:43.781Z,10.63
